Overview Statistics Trail Chart Weather Telemetry Raw packets
 

This is the latest recevied weather packets stored in our database for station/object WP3OF-2. If no packets are shown the sender has not sent any weather packets the latest 10 day(s).

<< 40 41 42 43 44 45 46 >>
Time Temp. Humidity Pressure Rain* Wind** Luminosity Snow
1788287951 22.22° C 94% 1025.6 hPa 0 mm - 138 W/m² -
1788287650 22.22° C 94% 1026 hPa 0 mm - 102 W/m² -
1788287346 22.22° C 93% 1026 hPa 0 mm - 101 W/m² -
1788287041 22.22° C 93% 1026 hPa 0 mm - 103 W/m² -
1788286736 22.22° C 91% 1025.6 hPa 0 mm - 130 W/m² -
1788286431 21.67° C 89% 1025.2 hPa 0 mm - 161 W/m² -
1788286129 22.22° C 93% 1025.6 hPa 0 mm - 156 W/m² -
1788285817 22.22° C 94% 1026 hPa 0 mm - 107 W/m² -
1788285511 22.22° C 94% 1026 hPa 0 mm - 107 W/m² -
1788285205 22.78° C 97% 1026 hPa 0 mm - 98 W/m² -
1788284901 22.78° C 97% 1026 hPa 0 mm - 98 W/m² -
1788284596 22.78° C 96% 1026 hPa 0 mm - 114 W/m² -
1788284291 22.78° C 95% 1026.3 hPa 0 mm - 155 W/m² -
1788283986 22.78° C 94% 1026.3 hPa 0 mm - 186 W/m² -
1788283683 23.33° C 93% 1026.3 hPa 0 mm - 328 W/m² -
1788283381 23.33° C 93% 1026.3 hPa 0 mm - 225 W/m² -
1788283080 23.33° C 92% 1026.7 hPa 0 mm - 233 W/m² -
1788282779 23.33° C 91% 1027.1 hPa 0 mm - 252 W/m² -
1788282478 23.89° C 87% 1026.7 hPa 0 mm - 363 W/m² -
1788282173 23.89° C 86% 1026.7 hPa 0 mm - 402 W/m² -
1788281872 24.44° C 84% 1026.7 hPa 0 mm - 710 W/m² -
1788281567 23.89° C 84% 1026.7 hPa 0 mm - 679 W/m² -
1788281263 23.89° C 88% 1026.7 hPa 0 mm - 278 W/m² -
1788280959 25° C 86% 1026.7 hPa 0 mm - 230 W/m² -
1788280654 25° C 86% 1026.7 hPa 0 mm - 230 W/m² -

* Rain latest hour (hover to see other rain measurements)
** Current wind speed in m/s (hover to see current wind gust speed)